sensor_id;sensor_type;location;lat;lon;timestamp;pressure;altitude;pressure_sealevel;temperature;humidity
46724;BME280;32463;48.298;11.620;2023-02-01T00:01:09;96815.75;;;2.99;100.00
46724;BME280;32463;48.298;11.620;2023-02-01T00:03:36;96814.94;;;2.98;100.00
46724;BME280;32463;48.298;11.620;2023-02-01T00:06:03;96811.66;;;2.96;100.00
46724;BME280;32463;48.298;11.620;2023-02-01T00:08:30;96819.25;;;2.98;100.00
46724;BME280;32463;48.298;11.620;2023-02-01T00:11:05;96812.06;;;3.03;100.00
46724;BME280;32463;48.298;11.620;2023-02-01T00:13:33;96802.13;;;2.98;100.00
46724;BME280;32463;48.298;11.620;2023-02-01T00:16:11;96824.34;;;2.98;100.00
46724;BME280;32463;48.298;11.620;2023-02-01T00:18:38;96814.94;;;2.98;100.00
46724;BME280;32463;48.298;11.620;2023-02-01T00:21:05;96800.59;;;2.96;100.00
46724;BME280;32463;48.298;11.620;2023-02-01T00:23:33;96803.47;;;3.04;100.00
46724;BME280;32463;48.298;11.620;2023-02-01T00:26:02;96802.22;;;2.97;100.00
46724;BME280;32463;48.298;11.620;2023-02-01T00:28:29;96804.88;;;2.95;100.00
46724;BME280;32463;48.298;11.620;2023-02-01T00:31:01;96799.03;;;2.93;100.00
46724;BME280;32463;48.298;11.620;2023-02-01T00:33:28;96804.56;;;2.87;100.00
46724;BME280;32463;48.298;11.620;2023-02-01T00:35:59;96796.16;;;2.85;100.00
46724;BME280;32463;48.298;11.620;2023-02-01T00:38:28;96791.84;;;2.86;100.00
46724;BME280;32463;48.298;11.620;2023-02-01T00:41:06;96794.31;;;2.87;100.00
46724;BME280;32463;48.298;11.620;2023-02-01T00:43:34;96797.91;;;2.85;100.00
46724;BME280;32463;48.298;11.620;2023-02-01T00:46:01;96782.09;;;2.78;100.00
46724;BME280;32463;48.298;11.620;2023-02-01T00:48:28;96781.72;;;2.72;100.00
46724;BME280;32463;48.298;11.620;2023-02-01T00:50:59;96780.88;;;2.71;100.00
46724;BME280;32463;48.298;11.620;2023-02-01T00:53:26;96785.00;;;2.74;100.00
46724;BME280;32463;48.298;11.620;2023-02-01T00:55:52;96794.41;;;2.73;100.00
46724;BME280;32463;48.298;11.620;2023-02-01T00:58:19;96779.00;;;2.60;100.00
46724;BME280;32463;48.298;11.620;2023-02-01T01:00:48;96795.81;;;2.64;100.00
46724;BME280;32463;48.298;11.620;2023-02-01T01:03:14;96787.22;;;2.65;100.00
46724;BME280;32463;48.298;11.620;2023-02-01T01:05:45;96796.19;;;2.58;100.00
46724;BME280;32463;48.298;11.620;2023-02-01T01:08:12;96775.47;;;2.49;100.00
46724;BME280;32463;48.298;11.620;2023-02-01T01:10:39;96789.63;;;2.54;100.00
46724;BME280;32463;48.298;11.620;2023-02-01T01:13:08;96783.06;;;2.50;100.00
46724;BME280;32463;48.298;11.620;2023-02-01T01:15:36;96793.31;;;2.50;100.00
46724;BME280;32463;48.298;11.620;2023-02-01T01:18:03;96793.31;;;2.50;100.00
46724;BME280;32463;48.298;11.620;2023-02-01T01:20:30;96789.28;;;2.46;100.00
46724;BME280;32463;48.298;11.620;2023-02-01T01:22:56;96787.16;;;2.40;100.00
46724;BME280;32463;48.298;11.620;2023-02-01T01:25:23;96797.19;;;2.43;100.00
46724;BME280;32463;48.298;11.620;2023-02-01T01:27:49;96797.38;;;2.40;100.00
46724;BME280;32463;48.298;11.620;2023-02-01T01:30:16;96783.78;;;2.40;100.00
46724;BME280;32463;48.298;11.620;2023-02-01T01:32:43;96786.13;;;2.43;100.00
46724;BME280;32463;48.298;11.620;2023-02-01T01:35:10;96782.03;;;2.40;100.00
46724;BME280;32463;48.298;11.620;2023-02-01T01:37:37;96781.84;;;2.43;100.00
46724;BME280;32463;48.298;11.620;2023-02-01T01:40:05;96768.13;;;2.44;100.00
46724;BME280;32463;48.298;11.620;2023-02-01T01:42:39;96756.34;;;2.42;100.00
46724;BME280;32463;48.298;11.620;2023-02-01T01:45:19;96751.13;;;2.43;100.00
46724;BME280;32463;48.298;11.620;2023-02-01T01:47:51;96757.38;;;2.39;100.00
46724;BME280;32463;48.298;11.620;2023-02-01T01:50:22;96746.41;;;2.37;100.00
46724;BME280;32463;48.298;11.620;2023-02-01T01:52:51;96746.69;;;2.32;100.00
46724;BME280;32463;48.298;11.620;2023-02-01T01:55:21;96741.88;;;2.28;100.00
46724;BME280;32463;48.298;11.620;2023-02-01T01:58:05;96752.81;;;2.30;100.00
46724;BME280;32463;48.298;11.620;2023-02-01T02:00:32;96743.31;;;2.32;100.00
46724;BME280;32463;48.298;11.620;2023-02-01T02:03:42;96742.94;;;2.38;100.00
46724;BME280;32463;48.298;11.620;2023-02-01T02:06:17;96743.66;;;2.40;100.00
46724;BME280;32463;48.298;11.620;2023-02-01T02:08:46;96751.13;;;2.43;100.00
46724;BME280;32463;48.298;11.620;2023-02-01T02:11:15;96746.22;;;2.40;100.00
46724;BME280;32463;48.298;11.620;2023-02-01T02:13:46;96745.28;;;2.41;100.00
46724;BME280;32463;48.298;11.620;2023-02-01T02:16:38;96752.97;;;2.41;100.00
46724;BME280;32463;48.298;11.620;2023-02-01T02:19:36;96761.38;;;2.43;100.00
46724;BME280;32463;48.298;11.620;2023-02-01T02:23:12;96767.41;;;2.42;100.00
46724;BME280;32463;48.298;11.620;2023-02-01T02:25:25;96768.22;;;2.43;100.00
46724;BME280;32463;48.298;11.620;2023-02-01T02:28:00;96766.69;;;2.40;100.00
46724;BME280;32463;48.298;11.620;2023-02-01T02:34:06;96757.56;;;2.36;100.00
46724;BME280;32463;48.298;11.620;2023-02-01T02:41:49;96763.22;;;2.41;100.00
46724;BME280;32463;48.298;11.620;2023-02-01T02:45:09;96744.56;;;2.39;100.00
46724;BME280;32463;48.298;11.620;2023-02-01T02:48:13;96743.66;;;2.40;100.00
46724;BME280;32463;48.298;11.620;2023-02-01T02:56:42;96733.09;;;2.32;100.00
46724;BME280;32463;48.298;11.620;2023-02-01T02:59:27;96725.50;;;2.30;100.00
46724;BME280;32463;48.298;11.620;2023-02-01T03:02:13;96731.25;;;2.34;100.00
46724;BME280;32463;48.298;11.620;2023-02-01T03:04:58;96724.69;;;2.30;100.00
46724;BME280;32463;48.298;11.620;2023-02-01T03:10:19;96725.41;;;2.32;100.00
46724;BME280;32463;48.298;11.620;2023-02-01T03:12:50;96716.47;;;2.25;100.00
46724;BME280;32463;48.298;11.620;2023-02-01T03:18:10;96726.31;;;2.31;100.00
46724;BME280;32463;48.298;11.620;2023-02-01T03:20:40;96718.13;;;2.26;100.00
46724;BME280;32463;48.298;11.620;2023-02-01T03:23:10;96728.34;;;2.26;100.00
46724;BME280;32463;48.298;11.620;2023-02-01T03:25:40;96716.47;;;2.25;100.00
46724;BME280;32463;48.298;11.620;2023-02-01T03:28:08;96717.50;;;2.22;100.00
46724;BME280;32463;48.298;11.620;2023-02-01T03:30:38;96713.41;;;2.20;100.00
46724;BME280;32463;48.298;11.620;2023-02-01T03:33:10;96701.31;;;2.09;100.00
46724;BME280;32463;48.298;11.620;2023-02-01T03:36:15;96713.41;;;2.20;100.00
46724;BME280;32463;48.298;11.620;2023-02-01T03:41:26;96712.16;;;2.13;100.00
46724;BME280;32463;48.298;11.620;2023-02-01T03:43:55;96711.94;;;2.16;100.00
46724;BME280;32463;48.298;11.620;2023-02-01T03:46:29;96698.47;;;2.14;100.00
46724;BME280;32463;48.298;11.620;2023-02-01T03:49:01;96701.72;;;2.16;100.00
46724;BME280;32463;48.298;11.620;2023-02-01T03:51:29;96710.31;;;2.15;100.00
46724;BME280;32463;48.298;11.620;2023-02-01T03:53:58;96703.34;;;2.17;100.00
46724;BME280;32463;48.298;11.620;2023-02-01T03:56:27;96689.75;;;2.16;100.00
46724;BME280;32463;48.298;11.620;2023-02-01T03:58:55;96690.47;;;2.18;100.00
46724;BME280;32463;48.298;11.620;2023-02-01T04:01:26;96685.78;;;2.12;100.00
46724;BME280;32463;48.298;11.620;2023-02-01T04:03:53;96699.69;;;2.21;100.00
46724;BME280;32463;48.298;11.620;2023-02-01T04:06:20;96691.72;;;2.25;100.00
46724;BME280;32463;48.298;11.620;2023-02-01T04:08:47;96696.84;;;2.25;100.00
46724;BME280;32463;48.298;11.620;2023-02-01T04:11:13;96698.78;;;2.22;100.00
46724;BME280;32463;48.298;11.620;2023-02-01T04:13:40;96697.03;;;2.22;100.00
46724;BME280;32463;48.298;11.620;2023-02-01T04:16:06;96707.69;;;2.29;100.00
46724;BME280;32463;48.298;11.620;2023-02-01T04:18:33;96696.44;;;2.31;100.00
46724;BME280;32463;48.298;11.620;2023-02-01T04:21:00;96691.97;;;2.35;100.00
46724;BME280;32463;48.298;11.620;2023-02-01T04:23:27;96691.53;;;2.28;100.00
46724;BME280;32463;48.298;11.620;2023-02-01T04:25:59;96673.13;;;2.36;100.00
46724;BME280;32463;48.298;11.620;2023-02-01T04:28:25;96677.13;;;2.40;100.00
46724;BME280;32463;48.298;11.620;2023-02-01T04:30:52;96684.09;;;2.38;100.00
46724;BME280;32463;48.298;11.620;2023-02-01T04:33:18;96693.06;;;2.31;100.00
46724;BME280;32463;48.298;11.620;2023-02-01T04:35:45;96697.06;;;2.35;100.00
46724;BME280;32463;48.298;11.620;2023-02-01T04:38:11;96693.59;;;2.36;100.00
46724;BME280;32463;48.298;11.620;2023-02-01T04:40:38;96693.41;;;2.39;100.00
46724;BME280;32463;48.298;11.620;2023-02-01T04:43:04;96691.38;;;2.44;100.00
46724;BME280;32463;48.298;11.620;2023-02-01T04:45:31;96697.59;;;2.40;100.00
46724;BME280;32463;48.298;11.620;2023-02-01T04:47:58;96692.97;;;2.45;100.00
46724;BME280;32463;48.298;11.620;2023-02-01T04:50:24;96691.97;;;2.48;100.00
46724;BME280;32463;48.298;11.620;2023-02-01T04:52:51;96690.22;;;2.48;100.00
46724;BME280;32463;48.298;11.620;2023-02-01T04:55:17;96685.63;;;2.53;100.00
46724;BME280;32463;48.298;11.620;2023-02-01T04:57:44;96692.38;;;2.54;100.00
46724;BME280;32463;48.298;11.620;2023-02-01T05:00:10;96691.16;;;2.60;100.00
46724;BME280;32463;48.298;11.620;2023-02-01T05:02:38;96704.06;;;2.58;100.00
46724;BME280;32463;48.298;11.620;2023-02-01T05:05:05;96697.09;;;2.60;100.00
46724;BME280;32463;48.298;11.620;2023-02-01T05:07:31;96696.00;;;2.64;100.00
46724;BME280;32463;48.298;11.620;2023-02-01T05:09:58;96692.31;;;2.68;100.00
46724;BME280;32463;48.298;11.620;2023-02-01T05:12:24;96693.22;;;2.67;100.00
46724;BME280;32463;48.298;11.620;2023-02-01T05:15:08;96701.63;;;2.69;100.00
46724;BME280;32463;48.298;11.620;2023-02-01T05:17:35;96697.44;;;2.68;100.00
46724;BME280;32463;48.298;11.620;2023-02-01T05:20:01;96697.94;;;2.74;100.00
46724;BME280;32463;48.298;11.620;2023-02-01T05:22:27;96691.19;;;2.73;100.00
46724;BME280;32463;48.298;11.620;2023-02-01T05:24:54;96687.91;;;2.70;100.00
46724;BME280;32463;48.298;11.620;2023-02-01T05:27:20;96709.41;;;2.81;100.00
46724;BME280;32463;48.298;11.620;2023-02-01T05:29:47;96713.91;;;2.77;100.00
46724;BME280;32463;48.298;11.620;2023-02-01T05:32:13;96718.44;;;2.74;100.00
46724;BME280;32463;48.298;11.620;2023-02-01T05:34:40;96706.44;;;2.74;100.00
46724;BME280;32463;48.298;11.620;2023-02-01T05:37:06;96704.28;;;2.68;100.00
46724;BME280;32463;48.298;11.620;2023-02-01T05:39:33;96699.19;;;2.68;100.00
46724;BME280;32463;48.298;11.620;2023-02-01T05:42:00;96694.69;;;2.72;100.00
46724;BME280;32463;48.298;11.620;2023-02-01T05:44:26;96684.22;;;2.75;100.00
46724;BME280;32463;48.298;11.620;2023-02-01T05:46:53;96692.59;;;2.77;100.00
46724;BME280;32463;48.298;11.620;2023-02-01T05:49:19;96677.47;;;2.74;100.00
46724;BME280;32463;48.298;11.620;2023-02-01T05:51:46;96678.16;;;2.76;100.00
46724;BME280;32463;48.298;11.620;2023-02-01T05:54:12;96684.34;;;2.73;100.00
46724;BME280;32463;48.298;11.620;2023-02-01T05:56:38;96679.31;;;2.72;100.00
46724;BME280;32463;48.298;11.620;2023-02-01T05:59:06;96676.84;;;2.70;100.00
46724;BME280;32463;48.298;11.620;2023-02-01T06:01:32;96669.19;;;2.70;100.00
46724;BME280;32463;48.298;11.620;2023-02-01T06:03:59;96660.06;;;2.66;100.00
46724;BME280;32463;48.298;11.620;2023-02-01T06:06:25;96660.88;;;2.66;100.00
46724;BME280;32463;48.298;11.620;2023-02-01T06:08:52;96660.78;;;2.68;100.00
46724;BME280;32463;48.298;11.620;2023-02-01T06:11:18;96674.91;;;2.74;100.00
46724;BME280;32463;48.298;11.620;2023-02-01T06:13:45;96670.28;;;2.79;100.00
46724;BME280;32463;48.298;11.620;2023-02-01T06:16:11;96657.06;;;2.85;100.00
46724;BME280;32463;48.298;11.620;2023-02-01T06:18:40;96652.66;;;2.87;100.00
46724;BME280;32463;48.298;11.620;2023-02-01T06:21:08;96644.38;;;2.83;100.00
46724;BME280;32463;48.298;11.620;2023-02-01T06:23:34;96653.50;;;2.87;100.00
46724;BME280;32463;48.298;11.620;2023-02-01T06:26:03;96651.25;;;2.83;100.00
46724;BME280;32463;48.298;11.620;2023-02-01T06:28:31;96657.78;;;2.87;100.00
46724;BME280;32463;48.298;11.620;2023-02-01T06:31:03;96656.66;;;2.91;100.00
46724;BME280;32463;48.298;11.620;2023-02-01T06:33:32;96652.47;;;2.90;100.00
46724;BME280;32463;48.298;11.620;2023-02-01T06:36:00;96656.97;;;2.86;100.00
46724;BME280;32463;48.298;11.620;2023-02-01T06:38:27;96654.31;;;2.88;100.00
46724;BME280;32463;48.298;11.620;2023-02-01T06:40:55;96652.66;;;2.87;100.00
46724;BME280;32463;48.298;11.620;2023-02-01T06:43:23;96661.06;;;2.89;100.00
46724;BME280;32463;48.298;11.620;2023-02-01T06:45:49;96667.63;;;2.93;100.00
46724;BME280;32463;48.298;11.620;2023-02-01T06:48:17;96655.94;;;2.89;100.00
46724;BME280;32463;48.298;11.620;2023-02-01T06:50:44;96656.88;;;2.88;100.00
46724;BME280;32463;48.298;11.620;2023-02-01T06:53:11;96653.38;;;2.89;100.00
46724;BME280;32463;48.298;11.620;2023-02-01T06:55:37;96649.69;;;2.93;100.00
46724;BME280;32463;48.298;11.620;2023-02-01T06:58:04;96656.38;;;2.95;100.00
46724;BME280;32463;48.298;11.620;2023-02-01T07:00:30;96664.34;;;2.91;100.00
46724;BME280;32463;48.298;11.620;2023-02-01T07:02:57;96666.81;;;3.05;100.00
46724;BME280;32463;48.298;11.620;2023-02-01T07:05:24;96665.38;;;3.01;100.00
46724;BME280;32463;48.298;11.620;2023-02-01T07:07:50;96667.63;;;3.06;100.00
46724;BME280;32463;48.298;11.620;2023-02-01T07:10:17;96669.94;;;3.09;100.00
46724;BME280;32463;48.298;11.620;2023-02-01T07:12:43;96671.50;;;3.11;100.00
46724;BME280;32463;48.298;11.620;2023-02-01T07:15:10;96664.31;;;3.16;100.00
46724;BME280;32463;48.298;11.620;2023-02-01T07:17:36;96657.56;;;3.15;100.00
46724;BME280;32463;48.298;11.620;2023-02-01T07:20:03;96638.91;;;3.13;100.00
46724;BME280;32463;48.298;11.620;2023-02-01T07:22:30;96633.56;;;3.16;100.00
46724;BME280;32463;48.298;11.620;2023-02-01T07:24:56;96645.47;;;3.17;100.00
46724;BME280;32463;48.298;11.620;2023-02-01T07:27:23;96649.88;;;3.15;100.00
46724;BME280;32463;48.298;11.620;2023-02-01T07:29:51;96667.59;;;3.18;100.00
46724;BME280;32463;48.298;11.620;2023-02-01T07:32:17;96648.94;;;3.16;100.00
46724;BME280;32463;48.298;11.620;2023-02-01T07:34:44;96655.28;;;3.23;100.00
46724;BME280;32463;48.298;11.620;2023-02-01T07:37:11;96654.56;;;3.21;100.00
46724;BME280;32463;48.298;11.620;2023-02-01T07:39:37;96663.09;;;3.22;100.00
46724;BME280;32463;48.298;11.620;2023-02-01T07:42:04;96652.53;;;3.26;100.00
46724;BME280;32463;48.298;11.620;2023-02-01T07:44:30;96657.94;;;3.34;100.00
46724;BME280;32463;48.298;11.620;2023-02-01T07:46:58;96655.75;;;3.41;100.00
46724;BME280;32463;48.298;11.620;2023-02-01T07:49:24;96660.78;;;3.43;100.00
46724;BME280;32463;48.298;11.620;2023-02-01T07:51:51;96667.53;;;3.44;100.00
46724;BME280;32463;48.298;11.620;2023-02-01T07:54:17;96669.16;;;3.45;100.00
46724;BME280;32463;48.298;11.620;2023-02-01T07:56:44;96660.78;;;3.43;100.00
46724;BME280;32463;48.298;11.620;2023-02-01T07:59:10;96667.31;;;3.47;100.00
46724;BME280;32463;48.298;11.620;2023-02-01T08:01:37;96681.06;;;3.46;100.00
46724;BME280;32463;48.298;11.620;2023-02-01T08:04:03;96676.75;;;3.46;100.00
46724;BME280;32463;48.298;11.620;2023-02-01T08:06:32;96673.66;;;3.54;100.00
46724;BME280;32463;48.298;11.620;2023-02-01T08:08:59;96676.72;;;3.59;100.00
46724;BME280;32463;48.298;11.620;2023-02-01T08:11:26;96639.41;;;3.55;100.00
46724;BME280;32463;48.298;11.620;2023-02-01T08:13:52;96682.00;;;3.68;100.00
46724;BME280;32463;48.298;11.620;2023-02-01T08:16:20;96694.84;;;3.68;100.00
46724;BME280;32463;48.298;11.620;2023-02-01T08:18:47;96701.03;;;3.66;100.00
46724;BME280;32463;48.298;11.620;2023-02-01T08:21:19;96709.91;;;3.73;100.00
46724;BME280;32463;48.298;11.620;2023-02-01T08:23:47;96690.31;;;3.72;100.00
46724;BME280;32463;48.298;11.620;2023-02-01T08:26:20;96692.44;;;3.78;100.00
46724;BME280;32463;48.298;11.620;2023-02-01T08:28:48;96697.38;;;3.81;100.00
46724;BME280;32463;48.298;11.620;2023-02-01T08:31:17;96699.81;;;3.83;100.00
46724;BME280;32463;48.298;11.620;2023-02-01T08:33:49;96683.63;;;3.82;100.00
46724;BME280;32463;48.298;11.620;2023-02-01T08:36:16;96691.81;;;3.87;100.00
46724;BME280;32463;48.298;11.620;2023-02-01T08:38:42;96681.97;;;3.81;100.00
46724;BME280;32463;48.298;11.620;2023-02-01T08:41:14;96703.72;;;3.88;100.00
46724;BME280;32463;48.298;11.620;2023-02-01T08:43:43;96689.97;;;3.89;100.00
46724;BME280;32463;48.298;11.620;2023-02-01T08:46:10;96691.59;;;3.90;100.00
46724;BME280;32463;48.298;11.620;2023-02-01T08:48:38;96684.88;;;4.00;100.00
46724;BME280;32463;48.298;11.620;2023-02-01T08:51:07;96674.88;;;4.09;100.00
46724;BME280;32463;48.298;11.620;2023-02-01T08:53:34;96662.03;;;3.97;100.00
46724;BME280;32463;48.298;11.620;2023-02-01T08:56:02;96682.78;;;4.05;100.00
46724;BME280;32463;48.298;11.620;2023-02-01T08:58:29;96671.59;;;4.06;100.00
46724;BME280;32463;48.298;11.620;2023-02-01T09:00:56;96695.63;;;4.05;100.00
46724;BME280;32463;48.298;11.620;2023-02-01T09:03:22;96695.63;;;4.05;100.00
46724;BME280;32463;48.298;11.620;2023-02-01T09:05:49;96708.13;;;4.10;100.00
46724;BME280;32463;48.298;11.620;2023-02-01T09:08:15;96692.56;;;4.00;100.00
46724;BME280;32463;48.298;11.620;2023-02-01T09:10:44;96702.38;;;4.06;100.00
46724;BME280;32463;48.298;11.620;2023-02-01T09:13:10;96690.59;;;4.04;100.00
46724;BME280;32463;48.298;11.620;2023-02-01T09:15:37;96702.19;;;4.10;100.00
46724;BME280;32463;48.298;11.620;2023-02-01T09:18:04;96691.91;;;4.10;100.00
46724;BME280;32463;48.298;11.620;2023-02-01T09:20:30;96690.56;;;4.17;100.00
46724;BME280;32463;48.298;11.620;2023-02-01T09:22:57;96683.66;;;4.17;100.00
46724;BME280;32463;48.298;11.620;2023-02-01T09:25:23;96698.75;;;4.33;100.00
46724;BME280;32463;48.298;11.620;2023-02-01T09:27:50;96697.66;;;4.48;100.00
46724;BME280;32463;48.298;11.620;2023-02-01T09:30:18;96697.44;;;4.51;100.00
46724;BME280;32463;48.298;11.620;2023-02-01T09:32:44;96709.41;;;4.74;100.00
46724;BME280;32463;48.298;11.620;2023-02-01T09:35:11;96702.88;;;4.82;100.00
46724;BME280;32463;48.298;11.620;2023-02-01T09:37:37;96698.75;;;4.68;100.00
46724;BME280;32463;48.298;11.620;2023-02-01T09:40:04;96691.91;;;4.80;100.00
46724;BME280;32463;48.298;11.620;2023-02-01T09:48:00;96708.91;;;4.58;100.00
46724;BME280;32463;48.298;11.620;2023-02-01T09:50:36;96731.63;;;4.52;100.00
46724;BME280;32463;48.298;11.620;2023-02-01T09:53:11;96733.38;;;4.51;100.00
46724;BME280;32463;48.298;11.620;2023-02-01T09:55:45;96721.69;;;4.47;100.00
46724;BME280;32463;48.298;11.620;2023-02-01T09:58:39;96719.69;;;4.39;100.00
46724;BME280;32463;48.298;11.620;2023-02-01T10:01:20;96711.88;;;4.41;100.00
46724;BME280;32463;48.298;11.620;2023-02-01T10:03:48;96719.50;;;4.30;100.00
46724;BME280;32463;48.298;11.620;2023-02-01T10:06:30;96726.53;;;4.28;100.00
46724;BME280;32463;48.298;11.620;2023-02-01T10:12:04;96730.50;;;4.32;100.00
46724;BME280;32463;48.298;11.620;2023-02-01T10:22:43;96743.44;;;4.54;100.00
46724;BME280;32463;48.298;11.620;2023-02-01T10:25:53;96749.22;;;4.45;100.00
46724;BME280;32463;48.298;11.620;2023-02-01T10:28:00;96739.88;;;4.44;100.00
46724;BME280;32463;48.298;11.620;2023-02-01T10:30:31;96754.69;;;4.40;100.00
46724;BME280;32463;48.298;11.620;2023-02-01T10:33:25;96742.41;;;4.33;100.00
46724;BME280;32463;48.298;11.620;2023-02-01T10:36:01;96749.88;;;4.36;100.00
46724;BME280;32463;48.298;11.620;2023-02-01T10:38:32;96741.25;;;4.37;100.00
46724;BME280;32463;48.298;11.620;2023-02-01T10:41:20;96752.94;;;4.41;100.00
46724;BME280;32463;48.298;11.620;2023-02-01T10:43:50;96745.88;;;4.32;100.00
46724;BME280;32463;48.298;11.620;2023-02-01T10:46:20;96743.53;;;4.29;100.00
46724;BME280;32463;48.298;11.620;2023-02-01T10:48:48;96746.81;;;4.31;100.00
46724;BME280;32463;48.298;11.620;2023-02-01T10:51:24;96745.78;;;4.33;100.00
46724;BME280;32463;48.298;11.620;2023-02-01T10:54:10;96740.16;;;4.28;100.00
46724;BME280;32463;48.298;11.620;2023-02-01T10:56:38;96725.56;;;4.29;100.00
46724;BME280;32463;48.298;11.620;2023-02-01T10:59:11;96740.97;;;4.29;100.00
46724;BME280;32463;48.298;11.620;2023-02-01T11:01:42;96716.69;;;4.22;100.00
46724;BME280;32463;48.298;11.620;2023-02-01T11:04:13;96728.75;;;4.32;100.00
46724;BME280;32463;48.298;11.620;2023-02-01T11:06:45;96729.13;;;4.39;100.00
46724;BME280;32463;48.298;11.620;2023-02-01T11:09:20;96729.56;;;4.33;100.00
46724;BME280;32463;48.298;11.620;2023-02-01T11:14:17;96752.41;;;4.25;100.00
46724;BME280;32463;48.298;11.620;2023-02-01T11:16:54;96748.44;;;4.32;100.00
46724;BME280;32463;48.298;11.620;2023-02-01T11:19:21;96744.75;;;4.36;100.00
46724;BME280;32463;48.298;11.620;2023-02-01T11:21:52;96754.50;;;4.31;100.00
46724;BME280;32463;48.298;11.620;2023-02-01T11:24:24;96746.00;;;4.30;100.00
46724;BME280;32463;48.298;11.620;2023-02-01T11:26:57;96750.56;;;4.27;100.00
46724;BME280;32463;48.298;11.620;2023-02-01T11:29:25;96743.91;;;4.24;100.00
46724;BME280;32463;48.298;11.620;2023-02-01T11:31:59;96747.50;;;4.22;100.00
46724;BME280;32463;48.298;11.620;2023-02-01T11:34:34;96754.47;;;4.20;100.00
46724;BME280;32463;48.298;11.620;2023-02-01T11:37:03;96744.72;;;4.25;100.00
46724;BME280;32463;48.298;11.620;2023-02-01T11:39:32;96735.16;;;4.27;100.00
46724;BME280;32463;48.298;11.620;2023-02-01T11:42:16;96744.72;;;4.25;100.00
46724;BME280;32463;48.298;11.620;2023-02-01T11:44:44;96745.63;;;4.24;100.00
46724;BME280;32463;48.298;11.620;2023-02-01T11:47:31;96745.63;;;4.24;100.00
46724;BME280;32463;48.298;11.620;2023-02-01T11:50:14;96735.38;;;4.24;100.00
46724;BME280;32463;48.298;11.620;2023-02-01T11:56:05;96721.00;;;4.21;100.00
46724;BME280;32463;48.298;11.620;2023-02-01T11:58:47;96715.06;;;4.21;100.00
46724;BME280;32463;48.298;11.620;2023-02-01T12:07:18;96702.56;;;4.16;100.00
46724;BME280;32463;48.298;11.620;2023-02-01T12:12:49;96705.22;;;4.15;100.00
46724;BME280;32463;48.298;11.620;2023-02-01T12:16:22;96697.88;;;4.10;100.00
46724;BME280;32463;48.298;11.620;2023-02-01T12:21:42;96685.75;;;4.12;100.00
46724;BME280;32463;48.298;11.620;2023-02-01T12:33:02;96681.00;;;4.19;100.00
46724;BME280;32463;48.298;11.620;2023-02-01T12:37:45;96674.44;;;4.15;100.00
46724;BME280;32463;48.298;11.620;2023-02-01T12:40:28;96672.00;;;4.13;100.00
46724;BME280;32463;48.298;11.620;2023-02-01T12:43:14;96675.59;;;4.11;100.00
46724;BME280;32463;48.298;11.620;2023-02-01T12:45:54;96669.84;;;4.07;100.00
46724;BME280;32463;48.298;11.620;2023-02-01T12:48:55;96671.59;;;4.06;100.00
46724;BME280;32463;48.298;11.620;2023-02-01T12:51:24;96661.34;;;4.06;100.00
46724;BME280;32463;48.298;11.620;2023-02-01T12:53:59;96666.69;;;4.03;100.00
46724;BME280;32463;48.298;11.620;2023-02-01T12:56:32;96662.38;;;4.04;100.00
46724;BME280;32463;48.298;11.620;2023-02-01T12:59:04;96658.06;;;4.04;100.00
46724;BME280;32463;48.298;11.620;2023-02-01T13:07:00;96660.69;;;4.16;100.00
46724;BME280;32463;48.298;11.620;2023-02-01T13:09:47;96646.72;;;4.20;100.00
46724;BME280;32463;48.298;11.620;2023-02-01T13:12:21;96641.34;;;4.23;100.00
46724;BME280;32463;48.298;11.620;2023-02-01T13:14:49;96659.81;;;4.28;100.00
46724;BME280;32463;48.298;11.620;2023-02-01T13:17:23;96650.47;;;4.27;100.00
46724;BME280;32463;48.298;11.620;2023-02-01T13:22:30;96653.38;;;4.33;100.00
46724;BME280;32463;48.298;11.620;2023-02-01T13:25:03;96648.03;;;4.36;100.00
46724;BME280;32463;48.298;11.620;2023-02-01T13:27:32;96652.34;;;4.36;100.00
46724;BME280;32463;48.298;11.620;2023-02-01T13:30:27;96639.84;;;4.31;100.00
46724;BME280;32463;48.298;11.620;2023-02-01T13:33:26;96642.53;;;4.30;100.00
46724;BME280;32463;48.298;11.620;2023-02-01T13:39:05;96646.00;;;4.29;100.00
46724;BME280;32463;48.298;11.620;2023-02-01T13:41:52;96644.41;;;4.28;100.00
46724;BME280;32463;48.298;11.620;2023-02-01T13:44:31;96651.63;;;4.23;100.00
46724;BME280;32463;48.298;11.620;2023-02-01T13:47:09;96654.91;;;4.25;100.00
46724;BME280;32463;48.298;11.620;2023-02-01T13:49:39;96651.84;;;4.20;100.00
46724;BME280;32463;48.298;11.620;2023-02-01T13:52:27;96647.53;;;4.20;100.00
46724;BME280;32463;48.298;11.620;2023-02-01T13:55:13;96652.34;;;4.25;100.00
46724;BME280;32463;48.298;11.620;2023-02-01T13:57:42;96657.47;;;4.36;100.00
46724;BME280;32463;48.298;11.620;2023-02-01T14:10:48;96659.44;;;4.21;100.00
46724;BME280;32463;48.298;11.620;2023-02-01T14:23:43;96669.53;;;4.12;100.00
46724;BME280;32463;48.298;11.620;2023-02-01T14:26:13;96664.34;;;4.00;100.00
46724;BME280;32463;48.298;11.620;2023-02-01T14:28:43;96664.75;;;3.83;100.00
46724;BME280;32463;48.298;11.620;2023-02-01T14:31:16;96674.22;;;3.70;100.00
46724;BME280;32463;48.298;11.620;2023-02-01T14:33:45;96668.75;;;3.51;100.00
46724;BME280;32463;48.298;11.620;2023-02-01T14:36:13;96641.69;;;3.47;100.00
46724;BME280;32463;48.298;11.620;2023-02-01T14:38:48;96685.34;;;3.58;100.00
46724;BME280;32463;48.298;11.620;2023-02-01T14:41:34;96684.31;;;3.60;100.00
46724;BME280;32463;48.298;11.620;2023-02-01T14:47:02;96680.22;;;3.58;100.00
46724;BME280;32463;48.298;11.620;2023-02-01T14:49:32;96673.66;;;3.54;100.00
46724;BME280;32463;48.298;11.620;2023-02-01T14:52:02;96678.78;;;3.54;100.00
46724;BME280;32463;48.298;11.620;2023-02-01T14:54:31;96676.34;;;3.52;100.00